Time;durP1;ratioP1;P1;durP2;ratioP2;P2;SDS_P1;SDS_P2;PMS_P1;PMS_P2;Temp;Humidity;BMP_temperature;BMP_pressure;BME280_temperature;BME280_humidity;BME280_pressure;Samples;Min_cycle;Max_cycle;Signal;HPM_P1;HPM_P2
2021/06/03 03:41:33;;;;;;;7.05;3.75;;;;;19.40;101684.00;;;;5049537;27;398772;-84
2021/06/03 03:44:00;;;;;;;7.05;4.38;;;;;19.20;101671.00;;;;5046949;28;20130;-84
2021/06/03 03:46:27;;;;;;;5.90;4.20;;;;;19.10;101684.00;;;;5024407;28;20099;-83
2021/06/03 03:48:53;;;;;;;4.43;4.00;;;19.50;59.40;19.00;101686.00;;;;5021555;28;20038;-84
2021/06/03 03:51:20;;;;;;;5.40;4.72;;;;;18.90;101676.00;;;;5022822;28;20147;-85
2021/06/03 03:53:47;;;;;;;5.22;4.53;;;19.40;59.60;18.90;101672.00;;;;5004007;28;20823;-86
2021/06/03 03:56:20;;;;;;;6.63;4.65;;;19.40;59.70;18.90;101689.00;;;;5065641;28;20029;-87
2021/06/03 03:58:49;;;;;;;5.38;4.78;;;;;18.80;101687.00;;;;5035711;28;20526;-87
2021/06/03 04:01:16;;;;;;;7.07;5.40;;;;;18.80;101688.00;;;;5037968;28;20475;-87
2021/06/03 04:03:42;;;;;;;8.43;5.70;;;19.30;59.90;18.90;101678.00;;;;5031179;28;20072;-87
2021/06/03 04:06:11;;;;;;;8.27;5.38;;;19.40;61.50;18.80;101682.00;;;;5016766;28;20194;-88
2021/06/03 04:08:37;;;;;;;7.55;4.95;;;;;18.80;101678.00;;;;5041938;28;20177;-86
2021/06/03 04:11:06;;;;;;;6.28;5.07;;;;;18.80;101680.00;;;;5040154;28;20053;-87
2021/06/03 04:13:38;;;;;;;5.57;4.97;;;;;18.80;101691.00;;;;5047650;28;20088;-88
2021/06/03 04:16:08;;;;;;;9.65;4.88;;;;;18.80;101697.00;;;;5035460;28;20698;-88
2021/06/03 04:18:36;;;;;;;4.97;4.45;;;;;18.80;101698.00;;;;5036743;28;20036;-88
2021/06/03 04:21:03;;;;;;;5.18;4.53;;;19.30;60.70;18.90;101691.00;;;;5004860;28;20041;-88
2021/06/03 04:23:30;;;;;;;5.68;4.70;;;;;18.90;101695.00;;;;5023493;28;20116;-87
2021/06/03 04:25:57;;;;;;;5.47;4.90;;;;;18.90;101703.00;;;;5036393;28;20517;-87
2021/06/03 04:28:23;;;;;;;9.65;5.00;;;19.40;61.10;18.90;101686.00;;;;5031486;28;20095;-86
2021/06/03 04:30:50;;;;;;;5.00;4.50;;;;;19.00;101694.00;;;;5022631;28;20381;-88
2021/06/03 04:33:20;;;;;;;7.90;5.13;;;19.50;61.10;19.00;101692.00;;;;5015505;28;20051;-86
2021/06/03 04:35:47;;;;;;;6.05;5.35;;;;;19.10;101693.00;;;;5018729;28;20045;-87
2021/06/03 04:38:13;;;;;;;6.72;5.40;;;;;19.10;101697.00;;;;5016981;28;20170;-87
2021/06/03 04:40:40;;;;;;;8.68;5.65;;;;;19.10;101708.00;;;;5040953;28;20060;-87
2021/06/03 04:43:06;;;;;;;7.82;5.70;;;;;19.20;101702.00;;;;5015039;28;20566;-87
2021/06/03 04:45:36;;;;;;;10.73;5.10;;;;;19.20;101707.00;;;;5018542;28;20041;-87
2021/06/03 04:48:05;;;;;;;7.95;5.85;;;19.70;61.80;19.20;101712.00;;;;5017557;28;20051;-87
2021/06/03 04:50:32;;;;;;;8.57;6.13;;;19.70;61.60;19.30;101700.00;;;;5033370;28;20371;-88
2021/06/03 04:52:58;;;;;;;7.70;6.00;;;19.70;64.20;19.20;101711.00;;;;5020209;28;20132;-86
2021/06/03 04:55:25;;;;;;;9.47;7.63;;;19.70;61.80;19.30;101719.00;;;;4993929;28;20040;-86
2021/06/03 04:57:54;;;;;;;9.77;6.90;;;19.80;63.90;19.30;101722.00;;;;5035610;28;20344;-87
2021/06/03 05:00:34;;;;;;;9.45;6.90;;;19.80;61.80;19.40;101732.00;;;;5031541;28;20045;-88
2021/06/03 05:03:02;;;;;;;9.27;7.53;;;19.80;61.90;19.40;101730.00;;;;5028972;28;20131;-87
2021/06/03 05:05:29;;;;;;;9.52;7.50;;;;;19.50;101744.00;;;;5026246;28;20199;-87
2021/06/03 05:07:57;;;;;;;10.68;8.65;;;19.90;62.60;19.50;101744.00;;;;5045519;28;20037;-87
2021/06/03 05:10:26;;;;;;;9.40;6.80;;;20.00;63.90;19.60;101746.00;;;;5040987;28;20169;-87
2021/06/03 05:12:53;;;;;;;16.70;8.60;;;20.00;62.00;19.60;101752.00;;;;5032315;28;20049;-87
2021/06/03 05:15:19;;;;;;;;;;;20.00;63.80;19.50;101748.00;;;;5026297;28;20039;-87
2021/06/03 05:17:47;;;;;;;12.25;8.68;;;20.00;61.70;19.60;101750.00;;;;5028730;28;19927;-88
2021/06/03 05:20:17;;;;;;;12.10;8.07;;;20.10;61.60;19.70;101749.00;;;;5019974;28;20037;-85
2021/06/03 05:22:45;;;;;;;13.55;9.73;;;;;19.80;101749.00;;;;5028735;28;20041;-87
2021/06/03 05:25:17;;;;;;;12.07;9.98;;;;;19.90;101758.00;;;;5029981;28;20037;-85
2021/06/03 05:27:43;;;;;;;11.68;9.52;;;;;20.10;101763.00;;;;5030229;28;20069;-86
2021/06/03 05:30:12;;;;;;;20.20;10.52;;;20.50;62.00;20.30;101747.00;;;;5000841;28;20112;-86
2021/06/03 05:32:39;;;;;;;19.92;10.68;;;20.70;62.40;20.40;101760.00;;;;5009320;28;20056;-86
2021/06/03 05:35:09;;;;;;;20.05;10.63;;;20.80;61.70;20.50;101781.00;;;;5031075;28;20044;-85
2021/06/03 05:37:36;;;;;;;16.70;10.63;;;;;20.60;101767.00;;;;5013396;28;20053;-86
2021/06/03 05:40:08;;;;;;;20.08;12.48;;;20.90;61.50;20.60;101756.00;;;;5016537;28;20057;-86
2021/06/03 05:42:36;;;;;;;21.27;12.50;;;20.90;61.60;20.70;101773.00;;;;5036821;28;20044;-85
2021/06/03 05:45:07;;;;;;;23.65;14.70;;;21.00;61.50;20.60;101773.00;;;;5010372;28;20052;-85
2021/06/03 05:47:35;;;;;;;17.63;12.50;;;20.90;61.70;20.60;101777.00;;;;5026254;28;20513;-86
2021/06/03 05:50:03;;;;;;;17.80;12.65;;;;;20.60;101779.00;;;;4993641;28;20072;-85
2021/06/03 05:52:30;;;;;;;19.63;12.93;;;21.20;61.70;20.60;101786.00;;;;5016809;28;20036;-86
2021/06/03 05:54:56;;;;;;;;;;;20.90;63.30;20.50;101789.00;;;;4992215;28;20240;-85
2021/06/03 05:57:22;;;;;;;18.33;13.07;;;;;20.50;101788.00;;;;4997390;28;20026;-87
2021/06/03 05:59:49;;;;;;;16.55;12.73;;;21.00;63.50;20.60;101778.00;;;;5029314;28;20049;-87
2021/06/03 06:02:24;;;;;;;;;;;20.90;63.30;20.50;101785.00;;;;4981008;28;20037;-87
2021/06/03 06:07:37;;;;;;;14.55;12.90;;;;;20.60;101787.00;;;;5029412;28;20055;-86
2021/06/03 06:10:05;;;;;;;19.17;13.93;;;21.00;61.80;20.70;101790.00;;;;5040912;28;20049;-87
2021/06/03 06:12:31;;;;;;;18.58;14.18;;;21.00;62.50;20.70;101792.00;;;;5030705;28;20067;-85
2021/06/03 06:14:57;;;;;;;14.60;11.90;;;;;20.80;101786.00;;;;5008668;28;20045;-85
2021/06/03 06:17:23;;;;;;;14.80;13.07;;;21.20;61.70;20.80;101791.00;;;;5003524;28;20041;-86
2021/06/03 06:19:50;;;;;;;20.97;13.03;;;;;20.90;101788.00;;;;4996715;28;20072;-86
2021/06/03 06:22:16;;;;;;;17.02;13.02;;;21.30;61.50;21.00;101795.00;;;;5027599;28;20048;-87
2021/06/03 06:24:47;;;;;;;19.48;12.82;;;21.40;61.60;21.10;101798.00;;;;5037159;28;20768;-87
2021/06/03 06:27:14;;;;;;;16.23;11.98;;;;;21.10;101808.00;;;;5016740;28;20558;-84
2021/06/03 06:29:40;;;;;;;15.82;12.27;;;21.50;61.50;21.10;101804.00;;;;5019837;28;20172;-88
2021/06/03 06:32:10;;;;;;;13.13;9.83;;;;;21.20;101802.00;;;;5003309;28;20041;-87
2021/06/03 06:34:36;;;;;;;13.73;10.77;;;;;21.30;101818.00;;;;5032301;28;20315;-86
2021/06/03 06:37:03;;;;;;;13.40;10.48;;;;;21.30;101811.00;;;;5044293;28;20053;-86
2021/06/03 06:39:29;;;;;;;13.27;10.48;;;;;21.40;101805.00;;;;5021372;28;20044;-84
2021/06/03 06:41:55;;;;;;;13.35;9.77;;;;;21.40;101815.00;;;;5043128;28;20127;-86
2021/06/03 06:44:24;;;;;;;13.38;9.65;;;;;21.60;101816.00;;;;5043985;28;20040;-88
2021/06/03 06:46:51;;;;;;;13.07;8.70;;;;;21.70;101818.00;;;;4991987;28;20040;-86
2021/06/03 06:49:17;;;;;;;9.88;8.57;;;;;22.00;101812.00;;;;5003289;28;20044;-86
2021/06/03 06:51:44;;;;;;;10.32;8.35;;;;;22.20;101814.00;;;;5028874;28;20056;-84
2021/06/03 06:54:10;;;;;;;11.98;8.23;;;;;22.40;101819.00;;;;5037886;28;20132;-85
2021/06/03 06:56:36;;;;;;;9.18;7.40;;;;;22.60;101823.00;;;;5026109;28;20036;-87
2021/06/03 06:59:03;;;;;;;9.82;7.90;;;;;22.80;101823.00;;;;5016446;28;20045;-89
2021/06/03 07:01:48;;;;;;;10.10;8.07;;;;;23.00;101830.00;;;;5021609;28;20150;-87
2021/06/03 07:04:14;;;;;;;9.90;7.90;;;;;23.20;101823.00;;;;5015543;28;20056;-86
2021/06/03 07:06:41;;;;;;;12.50;7.88;;;;;23.30;101825.00;;;;5032641;28;20040;-88
2021/06/03 07:09:10;;;;;;;11.95;7.47;;;;;23.30;101826.00;;;;5014672;28;20053;-88
2021/06/03 07:11:37;;;;;;;9.07;7.07;;;;;23.20;101838.00;;;;5035230;28;20044;-88
2021/06/03 07:14:04;;;;;;;10.20;7.90;;;;;23.20;101839.00;;;;5012456;28;20079;-86
2021/06/03 07:16:31;;;;;;;8.80;7.75;;;;;23.20;101840.00;;;;5045129;28;20073;-86
2021/06/03 07:18:57;;;;;;;11.40;7.00;;;;;23.10;101838.00;;;;5035846;28;20055;-87
2021/06/03 07:21:26;;;;;;;8.57;7.20;;;;;23.10;101837.00;;;;5024722;28;20047;-88
2021/06/03 07:23:52;;;;;;;9.55;6.30;;;;;23.20;101839.00;;;;5029436;28;20083;-86
2021/06/03 07:26:19;;;;;;;12.43;7.38;;;;;23.30;101838.00;;;;5018556;28;20303;-87
2021/06/03 07:28:47;;;;;;;9.35;7.15;;;;;23.40;101841.00;;;;5021031;28;20091;-88
2021/06/03 07:31:13;;;;;;;11.57;7.45;;;;;23.60;101852.00;;;;5002025;28;20040;-87
2021/06/03 07:33:40;;;;;;;10.85;8.27;;;;;23.80;101845.00;;;;5019493;28;20033;-86
2021/06/03 07:36:08;;;;;;;11.77;7.70;;;;;23.90;101836.00;;;;5021277;28;20040;-87
2021/06/03 07:38:35;;;;;;;8.75;6.97;;;;;24.20;101837.00;;;;5014157;28;20037;-86
2021/06/03 07:41:02;;;;;;;10.90;7.53;;;;;24.40;101838.00;;;;5017004;28;20136;-87
2021/06/03 07:43:28;;;;;;;9.60;7.40;;;24.60;57.10;24.50;101827.00;;;;5011763;28;20086;-87
2021/06/03 07:45:55;;;;;;;12.75;7.97;;;;;24.70;101835.00;;;;5032298;28;20094;-86
2021/06/03 07:48:22;;;;;;;9.65;7.88;;;;;24.80;101837.00;;;;5024215;28;20166;-86
2021/06/03 07:50:49;;;;;;;9.40;7.68;;;;;25.00;101835.00;;;;5035331;28;20139;-84
2021/06/03 07:53:15;;;;;;;11.75;8.02;;;;;25.10;101835.00;;;;5032358;28;20041;-85
2021/06/03 07:55:42;;;;;;;10.80;8.30;;;;;25.20;101838.00;;;;5009911;28;20044;-86
2021/06/03 07:58:12;;;;;;;11.65;8.48;;;25.30;55.30;25.20;101843.00;;;;5002542;28;20775;-86
2021/06/03 08:00:43;;;;;;;11.10;8.48;;;;;25.40;101842.00;;;;5036705;28;20072;-85
2021/06/03 08:03:10;;;;;;;11.27;8.18;;;;;25.50;101842.00;;;;4992834;28;20092;-87
2021/06/03 08:05:37;;;;;;;9.40;8.40;;;;;25.50;101841.00;;;;5034860;28;20084;-87
2021/06/03 08:08:04;;;;;;;9.85;7.63;;;25.60;54.70;25.50;101841.00;;;;5046685;28;20045;-86
2021/06/03 08:10:37;;;;;;;12.05;8.38;;;25.70;54.40;25.60;101837.00;;;;5011193;28;20064;-86
2021/06/03 08:13:03;;;;;;;12.93;8.02;;;25.70;54.80;25.70;101847.00;;;;5051856;28;20073;-86
2021/06/03 08:15:31;;;;;;;13.32;8.65;;;;;25.60;101844.00;;;;5021711;28;20094;-86
2021/06/03 08:18:00;;;;;;;12.13;8.35;;;;;25.60;101841.00;;;;5028230;28;20092;-86
2021/06/03 08:20:36;;;;;;;10.45;8.07;;;;;25.80;101846.00;;;;5017457;28;20044;-85
2021/06/03 08:23:05;;;;;;;11.88;8.43;;;26.00;53.90;26.00;101854.00;;;;5031755;28;20036;-85
2021/06/03 08:25:32;;;;;;;10.25;7.65;;;;;26.00;101853.00;;;;5039410;28;20045;-86
2021/06/03 08:27:58;;;;;;;10.25;7.90;;;;;25.90;101870.00;;;;5045006;28;20045;-86
2021/06/03 08:30:25;;;;;;;9.65;7.63;;;;;25.80;101860.00;;;;5041869;28;20033;-87
2021/06/03 08:32:52;;;;;;;;;;;26.00;53.20;25.50;101859.00;;;;4955484;28;20041;-86
2021/06/03 08:35:22;;;;;;;11.15;7.93;;;25.80;54.20;25.50;101862.00;;;;4913375;28;21219;-85
2021/06/03 08:37:51;;;;;;;10.30;7.70;;;;;25.50;101869.00;;;;4897427;28;342804;-85
2021/06/03 08:40:27;;;;;;;14.38;7.88;;;25.70;54.00;25.50;101873.00;;;;4996359;28;20049;-86
2021/06/03 08:42:55;;;;;;;12.57;8.15;;;25.90;53.90;25.70;101870.00;;;;4962157;28;20072;-87
2021/06/03 08:45:24;;;;;;;10.55;8.13;;;25.80;53.70;25.70;101873.00;;;;4989981;28;20077;-86
2021/06/03 08:47:56;;;;;;;11.65;8.40;;;;;25.70;101879.00;;;;4956893;28;20053;-86
2021/06/03 08:50:26;;;;;;;10.27;8.75;;;;;25.60;101870.00;;;;4980170;28;20052;-85
2021/06/03 08:52:53;;;;;;;10.38;7.97;;;;;25.60;101878.00;;;;5000782;28;20663;-84
2021/06/03 08:58:11;;;;;;;11.40;8.32;;;;;25.70;101883.00;;;;4994320;28;20058;-86
2021/06/03 09:00:39;;;;;;;12.02;8.80;;;26.00;53.70;25.80;101874.00;;;;5025698;28;20046;-85
2021/06/03 09:03:06;;;;;;;9.70;8.20;;;;;25.90;101875.00;;;;4982372;28;20086;-85
2021/06/03 09:05:33;;;;;;;12.43;8.57;;;;;26.10;101873.00;;;;4976480;28;20087;-86
2021/06/03 09:08:18;;;;;;;11.30;8.27;;;;;26.40;101876.00;;;;5016435;28;20037;-86
2021/06/03 09:10:58;;;;;;;11.70;8.18;;;;;26.60;101880.00;;;;4942237;28;20234;-86
2021/06/03 09:16:09;;;;;;;13.77;7.93;;;;;26.50;101874.00;;;;5551057;23;20065;-85
2021/06/03 09:18:39;;;;;;;9.18;6.95;;;;;26.50;101873.00;;;;5000146;28;21617;-86
2021/06/03 09:21:23;;;;;;;11.20;7.85;;;26.80;52.40;26.50;101879.00;;;;5025239;28;20045;-85
2021/06/03 09:24:01;;;;;;;7.70;5.30;;;;;26.60;101879.00;;;;5022727;28;20045;-85
2021/06/03 09:26:34;;;;;;;6.65;5.78;;;26.80;52.10;26.60;101864.00;;;;5023603;28;20052;-85
2021/06/03 09:29:04;;;;;;;12.05;5.53;;;;;26.80;101880.00;;;;5024077;28;20169;-87
2021/06/03 09:31:35;;;;;;;7.72;5.78;;;;;26.90;101877.00;;;;5031097;28;20033;-86
2021/06/03 09:34:18;;;;;;;9.77;6.40;;;;;27.10;101878.00;;;;5018058;28;20120;-87
2021/06/03 09:36:49;;;;;;;7.72;5.85;;;;;27.30;101888.00;;;;4968796;28;20056;-86
2021/06/03 09:39:20;;;;;;;8.38;7.10;;;27.30;51.10;27.20;101882.00;;;;4957675;28;20057;-88
2021/06/03 09:41:49;;;;;;;9.63;6.60;;;;;27.10;101882.00;;;;4995614;28;20482;-87
2021/06/03 09:44:31;;;;;;;7.38;6.05;;;27.20;51.30;27.00;101887.00;;;;5025085;28;20049;-87
2021/06/03 09:47:02;;;;;;;9.25;6.18;;;;;27.10;101887.00;;;;5040582;28;20152;-87
2021/06/03 09:49:33;;;;;;;7.78;5.75;;;;;27.10;101887.00;;;;5019217;28;20041;-87
2021/06/03 09:52:05;;;;;;;8.05;5.28;;;;;27.20;101900.00;;;;5005880;28;20224;-87
2021/06/03 09:54:33;;;;;;;9.45;5.75;;;27.30;51.90;27.20;101901.00;;;;5036660;28;20437;-86
2021/06/03 09:57:03;;;;;;;8.70;6.82;;;27.40;51.00;27.30;101890.00;;;;5005381;28;20041;-86
2021/06/03 09:59:36;;;;;;;14.40;9.10;;;27.40;50.80;27.20;101888.00;;;;5022011;28;20087;-86
2021/06/03 10:02:08;;;;;;;11.23;8.25;;;27.00;50.40;27.20;101898.00;;;;5021063;28;20199;-88
2021/06/03 10:04:45;;;;;;;10.80;8.35;;;27.30;50.70;27.10;101895.00;;;;4989520;28;20073;-86
2021/06/03 10:07:23;;;;;;;10.40;7.72;;;27.40;51.00;27.20;101885.00;;;;4973017;28;20119;-87
2021/06/03 10:10:08;;;;;;;10.45;7.75;;;27.40;50.50;27.30;101888.00;;;;5003655;28;20059;-87
2021/06/03 10:12:49;;;;;;;13.10;8.68;;;27.50;50.70;27.30;101893.00;;;;5006930;28;20438;-88
2021/06/03 10:15:19;;;;;;;12.43;8.90;;;;;27.10;101896.00;;;;4998149;28;20037;-89
2021/06/03 10:18:01;;;;;;;15.93;8.63;;;;;26.90;101894.00;;;;5033823;28;20053;-88
2021/06/03 10:20:49;;;;;;;10.32;8.77;;;27.00;51.50;26.80;101888.00;;;;5015904;28;20104;-87
2021/06/03 10:23:21;;;;;;;11.38;8.15;;;27.00;51.50;26.90;101883.00;;;;5006182;28;20118;-87
2021/06/03 10:26:10;;;;;;;10.93;8.20;;;27.10;50.80;26.80;101907.00;;;;5018422;28;20071;-87
2021/06/03 10:28:38;;;;;;;15.52;8.65;;;;;26.90;101904.00;;;;4988896;28;20044;-86
2021/06/03 10:31:12;;;;;;;12.88;9.30;;;;;26.90;101893.00;;;;4994069;28;20408;-87
2021/06/03 10:33:40;;;;;;;11.70;8.95;;;;;26.80;101902.00;;;;5014602;28;20041;-89
2021/06/03 10:36:08;;;;;;;11.23;9.02;;;;;26.80;101898.00;;;;5035860;28;20088;-88
2021/06/03 10:38:37;;;;;;;11.38;8.18;;;;;26.80;101901.00;;;;4998498;28;20051;-86
2021/06/03 10:41:07;;;;;;;11.77;9.20;;;26.90;51.60;26.80;101890.00;;;;5002871;28;20065;-88
2021/06/03 10:43:36;;;;;;;14.23;9.30;;;;;26.80;101887.00;;;;4998315;28;20501;-85
2021/06/03 10:46:06;;;;;;;11.27;9.00;;;27.00;52.20;26.80;101878.00;;;;5002955;28;20470;-86
2021/06/03 10:48:32;;;;;;;14.63;10.00;;;;;26.80;101889.00;;;;5015006;28;20140;-86
2021/06/03 10:51:06;;;;;;;;;;;27.00;51.70;26.70;101877.00;;;;5012658;28;20040;-87
2021/06/03 10:53:32;;;;;;;10.63;9.05;;;;;26.80;101891.00;;;;5036716;28;19935;-87
2021/06/03 10:56:19;;;;;;;12.27;8.75;;;;;26.80;101893.00;;;;5011709;28;20515;-87
2021/06/03 10:58:45;;;;;;;12.82;7.93;;;;;26.90;101894.00;;;;5020732;28;20065;-86
2021/06/03 11:01:15;;;;;;;11.75;7.95;;;27.10;51.40;26.90;101883.00;;;;5025575;28;20057;-85
2021/06/03 11:03:59;;;;;;;14.25;9.00;;;;;26.80;101886.00;;;;5025481;28;20064;-88
2021/06/03 11:06:33;;;;;;;13.05;8.63;;;;;26.80;101883.00;;;;5005455;28;20468;-86
2021/06/03 11:09:08;;;;;;;10.15;7.88;;;;;26.90;101887.00;;;;5032725;28;20045;-87
2021/06/03 11:11:47;;;;;;;15.27;8.98;;;;;26.70;101893.00;;;;5023287;28;20040;-87
2021/06/03 11:14:16;;;;;;;13.95;8.57;;;;;26.60;101895.00;;;;5013975;28;20043;-89
2021/06/03 11:16:46;;;;;;;14.23;9.73;;;;;26.60;101903.00;;;;4997962;28;20121;-89
2021/06/03 11:19:14;;;;;;;10.80;8.35;;;;;26.50;101901.00;;;;5029558;28;20251;-87
2021/06/03 11:21:45;;;;;;;11.32;9.23;;;;;26.70;101903.00;;;;5014445;28;20645;-88
2021/06/03 11:24:35;;;;;;;14.32;9.95;;;;;26.70;101899.00;;;;5016467;28;20316;-89
2021/06/03 11:27:04;;;;;;;10.57;9.38;;;;;26.90;101895.00;;;;5017461;28;20142;-88
2021/06/03 11:29:42;;;;;;;14.23;10.57;;;;;27.00;101893.00;;;;5004316;28;20377;-86
2021/06/03 11:32:11;;;;;;;13.15;10.55;;;;;27.10;101895.00;;;;5014877;28;20115;-86
2021/06/03 11:34:40;;;;;;;18.25;10.18;;;;;27.10;101893.00;;;;5017334;28;20101;-87
2021/06/03 11:37:14;;;;;;;;;;;27.20;53.50;26.80;101872.00;;;;4994291;28;20492;-85
2021/06/03 11:40:00;;;;;;;13.60;9.88;;;;;26.80;101892.00;;;;5027576;28;19924;-86
2021/06/03 11:42:40;;;;;;;10.82;8.93;;;;;26.70;101889.00;;;;5010867;28;20041;-86
2021/06/03 11:45:13;;;;;;;13.52;8.45;;;;;26.60;101893.00;;;;5016744;28;20052;-86
2021/06/03 11:47:43;;;;;;;11.13;8.77;;;;;26.50;101891.00;;;;5018602;28;20064;-87
2021/06/03 11:50:18;;;;;;;10.63;9.55;;;;;26.50;101886.00;;;;5009269;28;20044;-86
2021/06/03 11:53:02;;;;;;;12.65;9.68;;;;;26.50;101892.00;;;;5010131;28;20059;-86
2021/06/03 11:55:51;;;;;;;11.48;9.73;;;26.80;54.80;26.50;101889.00;;;;5044347;28;20139;-86
2021/06/03 11:58:47;;;;;;;13.88;11.45;;;;;26.70;101884.00;;;;5026761;28;20098;-87
2021/06/03 12:01:16;;;;;;;14.77;10.60;;;;;26.90;101897.00;;;;5002565;28;20768;-86
2021/06/03 12:03:51;;;;;;;16.35;11.85;;;;;26.90;101893.00;;;;5021132;28;20499;-87
2021/06/03 12:06:28;;;;;;;12.90;11.48;;;;;26.90;101900.00;;;;5016337;28;20049;-88
2021/06/03 12:08:56;;;;;;;13.95;10.02;;;;;27.10;101902.00;;;;5003083;28;20775;-87
2021/06/03 12:11:44;;;;;;;14.75;10.65;;;27.40;53.60;27.20;101876.00;;;;5007511;28;20072;-87
2021/06/03 12:14:19;;;;;;;13.38;10.68;;;;;27.50;101883.00;;;;5024973;28;20101;-86
2021/06/03 12:16:54;;;;;;;12.18;8.30;;;;;27.70;101881.00;;;;4999428;28;20513;-86
2021/06/03 12:19:29;;;;;;;13.32;9.93;;;28.10;52.30;27.90;101872.00;;;;4981513;28;20467;-86
2021/06/03 12:21:59;;;;;;;12.40;10.20;;;;;28.10;101869.00;;;;5000173;28;20117;-89
2021/06/03 12:24:44;;;;;;;12.10;8.73;;;28.30;50.80;28.10;101855.00;;;;5003048;28;20121;-88
2021/06/03 12:27:29;;;;;;;14.77;10.30;;;;;28.30;101865.00;;;;5005470;28;20085;-88
2021/06/03 12:30:11;;;;;;;17.10;10.18;;;;;28.40;101875.00;;;;5019333;28;20060;-88
2021/06/03 12:32:38;;;;;;;15.95;12.90;;;;;28.50;101874.00;;;;5018775;28;20048;-87
2021/06/03 12:35:06;;;;;;;13.77;10.93;;;;;28.60;101880.00;;;;5027236;28;20180;-86
2021/06/03 12:37:34;;;;;;;8.18;6.60;;;;;28.50;101884.00;;;;5019649;28;20033;-88
2021/06/03 12:40:08;;;;;;;11.15;8.05;;;;;28.60;101870.00;;;;5024688;28;20045;-87
2021/06/03 12:42:34;;;;;;;7.65;6.40;;;;;28.70;101873.00;;;;5023678;28;20132;-88
2021/06/03 12:45:07;;;;;;;;;;;28.80;49.70;28.60;101876.00;;;;5024132;28;20037;-88
2021/06/03 12:47:38;;;;;;;8.35;6.13;;;28.90;50.10;28.70;101858.00;;;;5010600;28;20273;-88
2021/06/03 12:50:06;;;;;;;7.72;6.82;;;;;28.70;101873.00;;;;5001317;28;20056;-88
2021/06/03 12:52:32;;;;;;;8.85;7.35;;;;;28.50;101879.00;;;;5002661;28;20045;-86
2021/06/03 12:55:00;;;;;;;7.15;5.82;;;;;28.30;101879.00;;;;4995638;28;20399;-87
2021/06/03 12:57:29;;;;;;;7.75;5.82;;;;;28.20;101879.00;;;;5018024;28;20084;-88
2021/06/03 12:59:57;;;;;;;10.48;6.60;;;28.50;49.50;28.30;101878.00;;;;5003773;28;20045;-87
2021/06/03 13:02:32;;;;;;;10.88;6.82;;;;;28.20;101875.00;;;;5030151;28;20050;-89
2021/06/03 13:04:59;;;;;;;9.65;7.80;;;;;28.10;101876.00;;;;5008523;28;20086;-88
2021/06/03 13:07:39;;;;;;;11.73;8.30;;;;;28.00;101872.00;;;;5003371;28;20051;-87
2021/06/03 13:10:16;;;;;;;11.45;8.13;;;;;27.90;101874.00;;;;5008819;28;20409;-88
2021/06/03 13:12:56;;;;;;;10.30;7.78;;;28.10;49.50;27.70;101863.00;;;;5017442;28;20049;-89
2021/06/03 13:15:24;;;;;;;11.07;8.40;;;28.10;49.80;27.90;101864.00;;;;5016836;28;20045;-88
2021/06/03 13:18:03;;;;;;;11.70;8.68;;;28.20;49.70;28.00;101836.00;;;;5008271;28;20061;-89
2021/06/03 13:20:34;;;;;;;10.45;8.05;;;;;28.00;101855.00;;;;5005086;28;20053;-88
2021/06/03 13:23:06;;;;;;;11.02;7.70;;;;;28.20;101856.00;;;;5006958;28;20463;-89
2021/06/03 13:25:41;;;;;;;11.85;7.50;;;28.40;49.40;28.40;101852.00;;;;5004436;28;20033;-89
2021/06/03 13:28:10;;;;;;;11.82;7.80;;;28.50;49.10;28.50;101859.00;;;;4992324;28;20690;-88
2021/06/03 13:30:50;;;;;;;8.80;7.65;;;28.70;48.20;28.50;101862.00;;;;5000312;28;20049;-87
2021/06/03 13:33:20;;;;;;;12.82;8.63;;;;;28.50;101862.00;;;;5019308;28;20060;-87
2021/06/03 13:36:00;;;;;;;13.68;9.02;;;28.60;48.30;28.30;101850.00;;;;5016254;28;20100;-86
2021/06/03 13:38:28;;;;;;;10.05;8.50;;;;;28.20;101860.00;;;;5021724;28;20135;-86
2021/06/03 13:40:59;;;;;;;14.77;11.88;;;;;28.20;101861.00;;;;5016818;28;20049;-86
2021/06/03 13:43:30;;;;;;;15.18;13.65;;;28.30;49.40;28.00;101853.00;;;;5005375;28;20057;-85
2021/06/03 13:46:07;;;;;;;16.00;13.20;;;;;27.90;101851.00;;;;5032751;28;20045;-85
2021/06/03 13:48:44;;;;;;;14.10;11.32;;;;;27.80;101854.00;;;;4998758;28;20045;-87
2021/06/03 13:51:18;;;;;;;19.73;14.75;;;28.30;50.50;27.70;101852.00;;;;5037215;28;20044;-88
2021/06/03 13:53:54;;;;;;;19.30;13.95;;;27.90;50.40;27.60;101855.00;;;;5023715;28;20033;-86
2021/06/03 13:56:29;;;;;;;19.13;14.67;;;;;27.50;101862.00;;;;5004193;28;20124;-87
2021/06/03 13:58:57;;;;;;;17.17;14.93;;;;;27.40;101864.00;;;;5041511;28;20048;-87
2021/06/03 14:01:40;;;;;;;17.08;14.05;;;27.60;50.90;27.30;101864.00;;;;5017171;28;21058;-85
2021/06/03 14:04:09;;;;;;;18.25;15.57;;;;;27.20;101863.00;;;;5008077;28;20124;-85
2021/06/03 14:06:38;;;;;;;18.25;14.55;;;27.40;51.10;27.10;101860.00;;;;5025001;28;20048;-86
2021/06/03 14:09:47;;;;;;;18.58;14.73;;;27.30;51.70;26.90;101857.00;;;;5025044;28;20065;-86
2021/06/03 14:12:29;;;;;;;18.60;14.20;;;;;27.00;101874.00;;;;4978857;28;20149;-85
2021/06/03 14:15:02;;;;;;;15.90;14.13;;;27.20;53.00;26.90;101874.00;;;;5000875;28;20328;-86
2021/06/03 14:17:34;;;;;;;17.92;15.23;;;;;26.70;101879.00;;;;5025466;28;20057;-87
2021/06/03 14:23:39;;;;;;;22.67;17.38;;;;;26.20;101880.00;;;;4968862;28;20056;-85
2021/06/03 14:26:18;;;;;;;26.13;19.20;;;;;26.10;101884.00;;;;4990174;28;20049;-87
2021/06/03 14:29:00;;;;;;;28.17;19.20;;;26.50;57.60;26.00;101877.00;;;;4991337;28;20046;-86
2021/06/03 14:31:52;;;;;;;25.80;19.52;;;;;26.00;101891.00;;;;5002226;28;20045;-86
2021/06/03 14:34:26;;;;;;;24.55;19.33;;;;;26.00;101896.00;;;;5014098;28;20059;-84
2021/06/03 14:36:59;;;;;;;24.73;20.15;;;;;26.00;101878.00;;;;5021914;28;20050;-84
2021/06/03 14:42:01;;;;;;;24.65;19.05;;;;;26.30;101882.00;;;;5519171;23;20650;-82
2021/06/03 14:44:28;;;;;;;26.20;20.08;;;;;26.40;101891.00;;;;5002920;28;20096;-84
2021/06/03 14:46:54;;;;;;;21.60;18.38;;;;;26.40;101889.00;;;;5020700;28;20132;-85
2021/06/03 14:49:22;;;;;;;20.33;16.55;;;26.70;58.60;26.50;101885.00;;;;5006974;28;20041;-87
2021/06/03 14:51:48;;;;;;;21.60;17.17;;;;;26.60;101879.00;;;;4989441;28;20088;-86
2021/06/03 14:54:15;;;;;;;18.67;16.70;;;;;26.70;101870.00;;;;4999840;28;20045;-84
2021/06/03 14:56:44;;;;;;;21.92;16.45;;;;;26.80;101861.00;;;;5020838;28;20056;-84
2021/06/03 15:02:08;;;;;;;;;;;27.20;58.20;26.80;101856.00;;;;5002646;28;20065;-85
2021/06/03 15:04:38;;;;;;;16.70;14.38;;;;;27.00;101853.00;;;;5012641;28;19940;-84
2021/06/03 15:07:07;;;;;;;16.38;14.63;;;;;27.10;101858.00;;;;5029582;28;20048;-85
2021/06/03 15:09:34;;;;;;;16.23;14.48;;;;;27.10;101860.00;;;;5010394;28;20244;-83
2021/06/03 15:12:01;;;;;;;18.63;15.85;;;;;27.10;101869.00;;;;4994264;28;20079;-83
2021/06/03 15:14:32;;;;;;;18.20;15.02;;;;;27.20;101860.00;;;;5039569;28;20118;-84
2021/06/03 15:16:59;;;;;;;16.00;12.48;;;;;27.20;101870.00;;;;5020474;28;20049;-82
2021/06/03 15:19:24;;;;;;;;;;;27.30;57.30;27.00;101859.00;;;;5025980;28;20121;-84
2021/06/03 15:21:56;;;;;;;13.73;11.30;;;;;27.00;101870.00;;;;5009443;28;19928;-83
2021/06/03 15:24:27;;;;;;;11.98;10.63;;;;;27.00;101854.00;;;;5019013;28;20053;-85
2021/06/03 15:26:54;;;;;;;13.48;10.45;;;;;27.00;101858.00;;;;5025547;28;20045;-84
2021/06/03 15:29:21;;;;;;;13.93;11.52;;;;;26.90;101854.00;;;;4997697;28;20389;-83
2021/06/03 15:31:48;;;;;;;10.30;8.98;;;;;27.00;101854.00;;;;5016775;28;20045;-83
2021/06/03 15:34:15;;;;;;;17.05;12.10;;;;;27.00;101853.00;;;;4998058;28;20432;-84
2021/06/03 15:36:49;;;;;;;16.13;13.02;;;;;27.00;101853.00;;;;5039301;28;20059;-85
2021/06/03 15:39:15;;;;;;;14.10;12.70;;;;;27.00;101849.00;;;;5019928;28;20052;-83
2021/06/03 15:41:41;;;;;;;;;;;27.30;56.50;26.90;101859.00;;;;5014776;28;20128;-84
2021/06/03 15:44:11;;;;;;;15.10;12.77;;;;;27.00;101870.00;;;;4994554;28;20007;-84
2021/06/03 15:46:38;;;;;;;14.88;13.25;;;;;26.90;101864.00;;;;5013974;28;20045;-84